Flight Track Log - Related Links

Times and Time Zones

All times are in EDT time to prevent confusion due to time zone crossing. See the PRY4 flight status page for this flight to view local times or setup timezone preferences in your user account.

Time Position Orientation Groundspeed Altitude Reporting Facility
EDT Latitude Longitude Course Direction KTS MPH feet Rate Location/Type
Thu 12:23:41 AM 29.4025 -100.8478 57° Northeast 127 146 4,700  Level Houston Center
Thu 12:24:41 AM 29.4231 -100.8117 57° Northeast 131 151 6,000 1,289 Climbing Houston Center
Thu 12:25:42 AM 29.4444 -100.7744 57° Northeast 136 157 7,300 1,438 Climbing Houston Center
Thu 12:26:42 AM 29.4650 -100.7347 59° Northeast 141 162 8,900 1,488 Climbing Houston Center
Thu 12:27:43 AM 29.4861 -100.6969 57° Northeast 141 162 10,300 1,388 Climbing Houston Center
Thu 12:28:43 AM 29.5064 -100.6606 57° Northeast 138 159 11,700 1,350 Climbing Houston Center
Thu 12:29:43 AM 29.5269 -100.6236 57° Northeast 137 158 13,000 1,289 Climbing Houston Center
Thu 12:30:44 AM 29.5483 -100.5844 58° Northeast 143 165 14,300 1,289 Climbing Houston Center
Thu 12:31:44 AM 29.5703 -100.5442 58° Northeast 148 170 15,600 1,240 Climbing Houston Center
Thu 12:32:45 AM 29.5931 -100.5033 57° Northeast 152 175 16,800 1,240 Climbing Houston Center
Thu 12:33:45 AM 29.6158 -100.4628 57° Northeast 152 175 18,100 1,150 Climbing Houston Center
Thu 12:34:45 AM 29.6386 -100.4211 58° Northeast 154 177 19,100 992 Climbing Houston Center
Thu 12:35:46 AM 29.6622 -100.3767 59° Northeast 161 185 20,100 942 Climbing Houston Center
Thu 12:36:46 AM 29.6869 -100.3319 58° Northeast 165 190 21,000 893 Climbing Houston Center
Thu 12:37:47 AM 29.7114 -100.2883 57° Northeast 164 189 21,900 843 Climbing Houston Center
Thu 12:38:47 AM 29.7367 -100.2408 58° Northeast 172 198 22,700 793 Climbing Houston Center
Thu 12:39:48 AM 29.7631 -100.1933 57° Northeast 176 203 23,500 744 Climbing Houston Center
Thu 12:40:48 AM 29.7894 -100.1442 58° Northeast 180 207 24,200 700 Climbing Houston Center
Thu 12:41:48 AM 29.8269 -100.1050 42° Northeast 184 212 24,900 397 Climbing Houston Center
Thu 12:42:49 AM 29.8703 -100.0667 37° Northeast 195 224 25,000 50 Climbing Houston Center
Thu 12:43:49 AM 29.9194 -100.0225 38° Northeast 220 253 25,000  Level Houston Center
Thu 12:44:49 AM 29.9800 -99.9656 39° Northeast 234 269 25,000  Level Houston Center
Thu 12:45:50 AM 30.0317 -99.9167 39° Northeast 240 276 25,000  Level Houston Center
Thu 12:46:50 AM 30.0839 -99.8686 39° Northeast 241 277 25,000  Level Houston Center
Thu 12:47:50 AM 30.1369 -99.8228 37° Northeast 238 274 25,000  Level Houston Center
Thu 12:48:51 AM 30.1911 -99.7769 36° Northeast 241 277 25,000  Level Houston Center
Thu 12:49:51 AM 30.2444 -99.7311 37° Northeast 240 276 25,000 793 Level Houston Center
Thu 12:50:52 AM 30.2928 -99.6939 34° Northeast 215 247 26,600 992 Climbing Houston Center
Thu 12:51:52 AM 30.3161 -99.6472 60° Northeast 171 197 27,000 200 Climbing Houston Center
Thu 12:52:52 AM 30.3436 -99.5953 58° Northeast 190 219 27,000  Level Houston Center
Thu 12:53:53 AM 30.3731 -99.5372 60° Northeast 207 238 27,000  Level Houston Center
Thu 12:54:53 AM 30.4047 -99.4764 59° Northeast 221 254 27,000  Level Houston Center
Thu 12:55:53 AM 30.4372 -99.4142 59° Northeast 224 258 27,000  Level Houston Center
Thu 12:56:54 AM 30.4700 -99.3486 60° Northeast 234 269 27,000  Level Houston Center
Thu 12:57:54 AM 30.5039 -99.2844 58° Northeast 234 269 27,000  Level Houston Center
Thu 12:58:54 AM 30.5369 -99.2203 59° Northeast 232 267 27,000  Level Houston Center
Thu 12:59:54 AM 30.5683 -99.1569 60° Northeast 228 262 27,000  Level Houston Center
Thu 01:00:55 AM 30.6011 -99.0925 59° Northeast 229 264 27,000  Level Houston Center
Thu 01:01:55 AM 30.6333 -99.0283 60° Northeast 229 264 27,000  Level Houston Center
Thu 01:02:55 AM 30.6667 -98.9664 58° Northeast 225 259 27,000  Level Houston Center
Thu 01:03:56 AM 30.6989 -98.9028 59° Northeast 225 259 27,000  Level Houston Center
Thu 01:04:56 AM 30.7303 -98.8383 60° Northeast 226 260 27,000  Level Houston Center
Thu 01:05:56 AM 30.7622 -98.7744 60° Northeast 226 260 27,000  Level Houston Center
Thu 01:06:56 AM 30.7953 -98.7097 59° Northeast 229 264 27,000  Level Houston Center
Thu 01:07:57 AM 30.8289 -98.6444 59° Northeast 231 266 27,000  Level Houston Center
Thu 01:08:57 AM 30.8608 -98.5789 60° Northeast 231 266 27,000  Level Houston Center
Thu 01:09:57 AM 30.8931 -98.5133 60° Northeast 231 266 27,000  Level Houston Center
Thu 01:10:57 AM 30.9269 -98.4486 59° Northeast 231 266 27,000  Level Houston Center
Thu 01:11:58 AM 30.9586 -98.3833 60° Northeast 229 264 27,000  Level Houston Center
Thu 01:12:58 AM 30.9917 -98.3167 60° Northeast 233 268 27,000  Level Houston Center
Thu 01:13:58 AM 31.0247 -98.2517 59° Northeast 230 265 27,000  Level Houston Center
Thu 01:14:58 AM 31.0572 -98.1853 60° Northeast 232 267 27,000  Level Houston Center
Thu 01:15:59 AM 31.0850 -98.1306 59° Northeast 232 267 27,000  Level Houston Center
Thu 01:16:59 AM 31.1183 -98.0639 60° Northeast 235 270 27,000  Level Houston Center
Thu 01:17:59 AM 31.1517 -97.9972 60° Northeast 236 272 27,000  Level Houston Center
Thu 01:18:59 AM 31.1842 -97.9314 60° Northeast 234 269 27,000  Level Houston Center
Thu 01:20:00 AM 31.2161 -97.8661 60° Northeast 230 265 27,000  Level Houston Center
Thu 01:21:00 AM 31.2489 -97.8000 60° Northeast 232 267 27,000  Level Houston Center
Thu 01:22:00 AM 31.2817 -97.7336 60° Northeast 233 268 27,000  Level Houston Center
Thu 01:23:01 AM 31.3153 -97.6686 59° Northeast 229 264 27,000  Level Fort Worth Center
Thu 01:24:01 AM 31.3467 -97.6056 60° Northeast 229 264 27,000  Level Fort Worth Center
Thu 01:25:01 AM 31.3844 -97.5300 60° Northeast 229 264 27,000  Level Fort Worth Center
Thu 01:26:01 AM 31.4158 -97.4644 61° Northeast 229 264 27,000  Level Fort Worth Center
Thu 01:27:01 AM 31.4472 -97.3986 61° Northeast 229 264 27,000  Level Fort Worth Center
Thu 01:28:01 AM 31.4806 -97.3306 60° Northeast 236 272 27,000  Level Fort Worth Center
Thu 01:29:02 AM 31.5106 -97.2658 61° Northeast 235 270 27,000  Level Houston Center
Thu 01:30:02 AM 31.5433 -97.2000 60° Northeast 232 267 27,000  Level Houston Center
Thu 01:32:01 AM 31.6053 -97.0719 60° Northeast 230 265 27,000  Level Fort Worth Center
Thu 01:33:01 AM 31.6344 -97.0131 60° Northeast 230 265 27,000  Level Fort Worth Center
Thu 01:34:01 AM 31.6656 -96.9447 62° Northeast 230 265 27,000  Level Fort Worth Center
Thu 01:35:01 AM 31.6967 -96.8811 60° Northeast 230 265 27,000  Level Fort Worth Center
Thu 01:36:01 AM 31.7297 -96.8150 60° Northeast 230 265 27,000  Level Fort Worth Center
Thu 01:37:01 AM 31.7606 -96.7489 61° Northeast 230 265 27,000  Level Fort Worth Center
Thu 01:38:01 AM 31.7917 -96.6850 60° Northeast 225 259 27,000  Level Fort Worth Center
Thu 01:39:01 AM 31.8267 -96.6164 59° Northeast 225 259 27,000  Level Fort Worth Center
Thu 01:40:01 AM 31.8514 -96.5525 65° Northeast 225 259 27,000  Level Fort Worth Center
Thu 01:41:01 AM 31.8842 -96.4836 61° Northeast 220 253 27,000  Level Fort Worth Center
Thu 01:42:01 AM 31.9172 -96.4172 60° Northeast 220 253 27,000  Level Fort Worth Center
Thu 01:43:01 AM 31.9478 -96.3508 62° Northeast 225 259 27,000  Level Fort Worth Center
Thu 01:44:01 AM 31.9786 -96.2867 60° Northeast 220 253 27,000  Level Fort Worth Center
Thu 01:45:01 AM 32.0114 -96.2178 61° Northeast 220 253 27,000  Level Fort Worth Center
Thu 01:46:01 AM 32.0422 -96.1511 61° Northeast 220 253 27,000  Level Fort Worth Center
Thu 01:47:01 AM 32.0728 -96.0844 62° Northeast 220 253 27,000  Level Fort Worth Center
Thu 01:48:01 AM 32.1033 -96.0181 61° Northeast 220 253 27,000  Level Fort Worth Center
Thu 01:49:01 AM 32.1361 -95.9536 59° Northeast 220 253 27,000  Level Fort Worth Center
Thu 01:50:01 AM 32.1667 -95.8869 62° Northeast 226 260 27,000  Level Fort Worth Center
Thu 01:51:01 AM 32.1969 -95.8175 63° Northeast 226 260 27,000  Level Fort Worth Center
Thu 01:52:01 AM 32.2294 -95.7508 60° Northeast 226 260 27,000  Level Fort Worth Center
Thu 01:53:01 AM 32.2619 -95.6814 61° Northeast 226 260 27,000  Level Fort Worth Center
Thu 01:54:01 AM 32.2925 -95.6169 61° Northeast 226 260 27,000  Level Fort Worth Center
Thu 01:55:01 AM 32.3228 -95.5500 62° Northeast 226 260 27,000  Level Fort Worth Center
Thu 01:56:01 AM 32.3592 -95.4778 59° Northeast 226 260 27,000  Level Fort Worth Center
Thu 01:57:01 AM 32.3875 -95.4108 63° Northeast 226 260 27,000  Level Fort Worth Center
Thu 01:58:01 AM 32.4219 -95.3411 60° Northeast 226 260 27,000  Level Fort Worth Center
Thu 01:59:01 AM 32.4519 -95.2739 62° Northeast 231 266 27,000  Level Fort Worth Center
Thu 02:00:01 AM 32.4800 -95.2092 63° Northeast 231 266 27,000  Level Fort Worth Center
Thu 02:01:01 AM 32.5081 -95.1397 64° Northeast 231 266 27,000  Level Fort Worth Center
Thu 02:02:01 AM 32.5403 -95.0675 62° Northeast 231 266 27,000  Level Fort Worth Center
Thu 02:03:01 AM 32.5744 -95.0000 59° Northeast 231 266 27,000  Level Fort Worth Center
Thu 02:04:01 AM 32.6064 -94.9275 62° Northeast 236 272 27,000  Level Fort Worth Center
Thu 02:05:01 AM 32.6406 -94.8575 60° Northeast 241 277 27,000  Level Fort Worth Center
Thu 02:06:01 AM 32.6703 -94.7875 63° Northeast 241 277 27,000  Level Fort Worth Center
Thu 02:07:01 AM 32.7042 -94.7150 61° Northeast 241 277 27,000  Level Fort Worth Center
Thu 02:08:01 AM 32.7361 -94.6450 62° Northeast 241 277 27,000  Level Fort Worth Center
Thu 02:09:02 AM 32.7681 -94.5747 62° Northeast 247 284 27,000  Level Fort Worth Center
Thu 02:10:01 AM 32.8017 -94.4994 62° Northeast 247 284 27,000  Level Fort Worth Center
Thu 02:11:01 AM 32.8333 -94.4269 63° Northeast 247 284 27,000  Level Fort Worth Center
Thu 02:12:01 AM 32.8672 -94.3539 61° Northeast 247 284 27,000  Level Fort Worth Center
Thu 02:13:01 AM 32.9008 -94.2811 61° Northeast 247 284 27,000  Level Fort Worth Center
Thu 02:14:01 AM 32.9325 -94.2058 63° Northeast 247 284 27,000  Level Fort Worth Center
Thu 02:15:01 AM 32.9661 -94.1328 61° Northeast 247 284 27,000  Level Fort Worth Center
Thu 02:16:01 AM 32.9994 -94.0597 61° Northeast 247 284 27,000  Level Fort Worth Center
Thu 02:17:01 AM 33.0331 -93.9867 61° Northeast 247 284 27,000  Level Fort Worth Center
Thu 02:18:01 AM 33.0644 -93.9111 64° Northeast 247 284 27,000  Level Fort Worth Center
Thu 02:19:01 AM 33.0978 -93.8353 62° Northeast 247 284 27,000  Level Fort Worth Center
Thu 02:20:01 AM 33.1311 -93.7619 61° Northeast 247 284 27,000  Level Fort Worth Center
Thu 02:21:01 AM 33.1622 -93.6864 64° Northeast 247 284 27,000  Level Fort Worth Center
Thu 02:22:01 AM 33.1956 -93.6131 61° Northeast 247 284 27,000  Level Fort Worth Center
Thu 02:23:01 AM 33.2289 -93.5394 62° Northeast 247 284 27,000  Level Fort Worth Center
Thu 02:24:01 AM 33.2619 -93.4683 61° Northeast 247 284 27,000  Level Fort Worth Center
Thu 02:25:01 AM 33.2950 -93.3925 62° Northeast 247 284 27,000  Level Fort Worth Center
Thu 02:26:01 AM 33.3281 -93.3164 63° Northeast 247 284 27,000  Level Fort Worth Center
Thu 02:27:56 AM 33.3919 -93.1686 63° Northeast 254 292 27,000  Level Memphis Center
Thu 02:28:56 AM 33.4247 -93.0950 62° Northeast 254 292 27,000  Level Memphis Center
Thu 02:29:56 AM 33.4578 -93.0189 62° Northeast 254 292 27,000  Level Memphis Center
Thu 02:30:56 AM 33.4906 -92.9453 62° Northeast 254 292 27,000  Level Memphis Center
Thu 02:31:56 AM 33.5214 -92.8714 63° Northeast 254 292 27,000  Level Memphis Center
Thu 02:32:56 AM 33.5561 -92.7975 61° Northeast 254 292 27,000  Level Memphis Center
Thu 02:33:56 AM 33.5869 -92.7211 64° Northeast 254 292 27,000  Level Memphis Center
Thu 02:34:56 AM 33.6197 -92.6472 62° Northeast 249 287 27,000  Level Memphis Center
Thu 02:35:56 AM 33.6500 -92.5756 63° Northeast 244 281 27,000  Level Memphis Center
Thu 02:36:56 AM 33.6828 -92.4992 63° Northeast 244 281 27,000  Level Memphis Center
Thu 02:37:56 AM 33.7133 -92.4250 64° Northeast 244 281 27,000  Level Memphis Center
Thu 02:38:56 AM 33.7414 -92.3556 64° Northeast 239 275 27,000  Level Memphis Center
Thu 02:39:56 AM 33.7739 -92.2839 61° Northeast 239 275 27,000  Level Memphis Center
Thu 02:40:56 AM 33.8042 -92.2094 64° Northeast 239 275 27,000  Level Memphis Center
Thu 02:41:56 AM 33.8367 -92.1378 61° Northeast 239 275 27,000  Level Memphis Center
Thu 02:42:56 AM 33.8689 -92.0658 62° Northeast 239 275 27,000  Level Memphis Center
Thu 02:43:56 AM 33.8969 -91.9889 66° East 239 275 27,000  Level Memphis Center
Thu 02:44:56 AM 33.9272 -91.9169 63° Northeast 239 275 27,000  Level Memphis Center
Thu 02:45:56 AM 33.9594 -91.8422 63° Northeast 239 275 27,000  Level Memphis Center
Thu 02:46:56 AM 33.9936 -91.7703 60° Northeast 239 275 27,000  Level Memphis Center
Thu 02:47:56 AM 34.0194 -91.6953 67° East 239 275 27,000  Level Memphis Center
Thu 02:48:56 AM 34.0494 -91.6206 64° Northeast 239 275 27,000  Level Memphis Center
Thu 02:49:56 AM 34.0794 -91.5483 63° Northeast 239 275 27,000  Level Memphis Center
Thu 02:50:56 AM 34.1094 -91.4761 63° Northeast 239 275 27,000  Level Memphis Center
Thu 02:51:56 AM 34.1392 -91.4011 64° Northeast 239 275 27,000  Level Memphis Center
Thu 02:52:56 AM 34.1647 -91.3336 65° Northeast 239 275 27,000  Level Memphis Center
Thu 02:53:56 AM 34.1986 -91.2611 61° Northeast 239 275 27,000  Level Memphis Center
Thu 02:54:56 AM 34.2242 -91.1861 68° East 239 275 27,000  Level Memphis Center
Thu 02:55:56 AM 34.2581 -91.1136 60° Northeast 239 275 27,000  Level Memphis Center
Thu 02:56:56 AM 34.2897 -91.0408 62° Northeast 239 275 27,000  Level Memphis Center
Thu 02:57:56 AM 34.3194 -90.9633 65° Northeast 239 275 27,000  Level Memphis Center
Thu 02:58:56 AM 34.3511 -90.8831 64° Northeast 239 275 27,000  Level Memphis Center
Thu 02:59:56 AM 34.3828 -90.8050 64° Northeast 239 275 27,000  Level Memphis Center
Thu 03:00:56 AM 34.4142 -90.7297 63° Northeast 239 275 27,000  Level Memphis Center
Thu 03:01:56 AM 34.4436 -90.6544 65° Northeast 239 275 27,000  Level Memphis Center
Thu 03:02:56 AM 34.4750 -90.5764 64° Northeast 244 281 27,000  Level Memphis Center
Thu 03:03:56 AM 34.5064 -90.5008 63° Northeast 244 281 27,000  Level Memphis Center
Thu 03:04:56 AM 34.5358 -90.4253 65° Northeast 250 288 27,000  Level Memphis Center
Thu 03:05:56 AM 34.5672 -90.3469 64° Northeast 250 288 27,000  Level Memphis Center
Thu 03:06:56 AM 34.5983 -90.2714 63° Northeast 250 288 27,000  Level Memphis Center
Thu 03:07:56 AM 34.6297 -90.1931 64° Northeast 250 288 27,000  Level Memphis Center
Thu 03:08:56 AM 34.6544 -90.1247 66° East 250 288 27,000  Level Memphis Center
Thu 03:09:56 AM 34.6856 -90.0464 64° Northeast 250 288 27,000  Level Memphis Center
Thu 03:10:56 AM 34.7147 -89.9706 65° Northeast 250 288 27,000  Level Memphis Center
Thu 03:11:56 AM 34.7456 -89.8919 64° Northeast 256 295 27,000  Level Memphis Center
Thu 03:12:56 AM 34.7808 -89.8033 64° Northeast 251 289 27,000  Level Memphis Center
Thu 03:13:56 AM 34.8117 -89.7172 66° East 268 308 27,000  Level Memphis Center
Thu 03:14:56 AM 34.8425 -89.6411 64° Northeast 262 302 27,000  Level Memphis Center
Thu 03:15:56 AM 34.8733 -89.5647 64° Northeast 268 308 27,000  Level Memphis Center
Thu 03:16:56 AM 34.9061 -89.4833 64° Northeast 258 297 27,000  Level Memphis Center
Thu 03:17:56 AM 34.9369 -89.4072 64° Northeast 253 291 27,000  Level Memphis Center
Thu 03:18:56 AM 34.9675 -89.3258 65° Northeast 258 297 27,000  Level Memphis Center
Thu 03:19:56 AM 34.9981 -89.2467 65° Northeast 258 297 27,000  Level Memphis Center
Thu 03:20:56 AM 35.0286 -89.1678 65° Northeast 258 297 27,000  Level Memphis Center
Thu 03:21:56 AM 35.0614 -89.0886 63° Northeast 258 297 27,000  Level Memphis Center
Thu 03:22:56 AM 35.0936 -88.9994 66° East 258 297 27,000  Level Memphis Center
Thu 03:23:56 AM 35.1242 -88.9175 65° Northeast 258 297 27,000  Level Memphis Center
Thu 03:24:56 AM 35.1564 -88.8358 64° Northeast 258 297 27,000 -50 Level Memphis Center
Thu 03:25:56 AM 35.1867 -88.7564 65° Northeast 258 297 26,900 -650 Descending Memphis Center
Thu 03:26:56 AM 35.2211 -88.6669 65° Northeast 266 306 25,700 -1,200 Descending Memphis Center
Thu 03:27:56 AM 35.2572 -88.5694 66° East 289 333 24,500 -1,050 Descending Memphis Center
Thu 03:28:56 AM 35.2894 -88.4872 64° Northeast 297 342 23,600 -1,150 Descending Memphis Center
Thu 03:29:56 AM 35.3275 -88.3897 64° Northeast 290 334 22,200 -1,300 Descending Memphis Center
Thu 03:30:56 AM 35.3636 -88.2972 64° Northeast 290 334 21,000 -1,150 Descending Memphis Center
Thu 03:31:56 AM 35.3953 -88.2047 67° East 296 341 19,900 -1,150 Descending Memphis Center
Thu 03:32:56 AM 35.4314 -88.1147 64° Northeast 295 339 18,700 -1,200 Descending Memphis Center
Thu 03:33:56 AM 35.4672 -88.0194 65° Northeast 295 339 17,500 -1,200 Descending Memphis Center
Thu 03:34:56 AM 35.5008 -87.9317 65° Northeast 295 339 16,300 -1,200 Descending Memphis Center
Thu 03:35:56 AM 35.5344 -87.8389 66° East 295 339 15,100 -1,200 Descending Memphis Center
Thu 03:36:56 AM 35.5658 -87.7461 67° East 295 339 13,900 -1,200 Descending Memphis Center
Thu 03:37:56 AM 35.6017 -87.6556 64° Northeast 295 339 12,700 -1,150 Descending Memphis Center
Thu 03:38:56 AM 35.6328 -87.5628 68° East 290 334 11,600 -1,050 Descending Memphis Center
Thu 03:39:56 AM 35.6644 -87.4822 64° Northeast 285 328 10,600 -1,100 Descending Memphis Center
Thu 03:40:56 AM 35.6956 -87.3917 67° East 285 328 9,400 -800 Descending Memphis Center
Thu 03:41:56 AM 35.7289 -87.3036 65° Northeast 280 322 9,000 -200 Descending Memphis Center
Thu 03:42:56 AM 35.7603 -87.2181 66° East 280 322 9,000 -250 Level Memphis Center
Thu 03:43:56 AM 35.7914 -87.1325 66° East 280 322 8,500 -850 Descending Memphis Center
Thu 03:44:56 AM 35.8244 -87.0389 66° East 285 328 7,300 -1,200 Descending Memphis Center
Thu 03:45:56 AM 35.8553 -86.9531 66° East 278 320 6,100 -1,200 Descending Memphis Center
Thu 03:46:56 AM 35.8842 -86.8650 68° East 278 320 4,900 -1,200 Descending Memphis Center
Thu 03:47:56 AM 35.9172 -86.7789 65° Northeast 278 320 3,700 -650 Descending Memphis Center
Thu 03:48:56 AM 35.9500 -86.6853 67° East 278 320 3,600 -100 Descending Memphis Center
Thu 03:56:00 AM 35.9718 -86.6014 68° East  Level FlightAware Approximate
Thu 04:03:00 AM 36.0000 -86.5167 251° West  Level FlightAware Approximate
Thu 04:04:00 AM 36.0090 -86.5201 251° West  Level Estimated
Thu 04:05:00 AM 36.0090 -86.5201 251° West  Level Estimated
Thu 04:06:00 AM 36.0090 -86.5201 251° West  Level Estimated
Thu 04:07:00 AM 36.0090 -86.5201 251° West  Level Estimated
Thu 04:08:00 AM 36.0090 -86.5201 251° West  Level Estimated
Thu 04:09:00 AM 36.0090 -86.5201 251° West  Level Estimated
Thu 04:10:00 AM 36.0090 -86.5201 251° West  Level Estimated

Login

Don't have an account? Register now (free) for customized features, flight alerts, and more!